Time;durP1;ratioP1;P1;durP2;ratioP2;P2;SDS_P1;SDS_P2;PMS_P1;PMS_P2;Temp;Humidity;BMP_temperature;BMP_pressure;BME280_temperature;BME280_humidity;BME280_pressure;Samples;Min_cycle;Max_cycle;Signal;HPM_P1;HPM_P2
2022/12/31 00:02:04;;;;;;;5.00;1.10;;;12.60;99.90;;;;;;5011363;28;20022;-42
2022/12/31 00:04:30;;;;;;;2.92;1.50;;;12.60;99.90;;;;;;5013106;28;20490;-41
2022/12/31 00:06:56;;;;;;;2.17;1.20;;;12.60;99.90;;;;;;5012966;28;20391;-42
2022/12/31 00:09:21;;;;;;;1.60;1.35;;;12.60;99.90;;;;;;5012719;28;20026;-41
2022/12/31 00:11:47;;;;;;;1.45;1.05;;;12.60;99.90;;;;;;5012171;28;20084;-40
2022/12/31 00:14:12;;;;;;;1.27;1.13;;;12.60;99.90;;;;;;5009957;28;20026;-42
2022/12/31 00:16:40;;;;;;;1.58;1.48;;;12.60;99.90;;;;;;5013434;28;20034;-51
2022/12/31 00:19:08;;;;;;;;;;;12.60;99.90;;;;;;5011497;28;20430;-42
2022/12/31 00:21:37;;;;;;;1.77;1.58;;;12.60;99.90;;;;;;5013007;28;19913;-35
2022/12/31 00:24:05;;;;;;;3.45;1.85;;;12.60;99.90;;;;;;5007399;28;20497;-64
2022/12/31 00:26:32;;;;;;;2.45;1.92;;;12.60;99.90;;;;;;5013304;28;20363;-42
2022/12/31 00:29:02;;;;;;;3.70;2.28;;;12.60;99.90;;;;;;5009950;28;20498;-37
2022/12/31 00:31:31;;;;;;;2.88;1.70;;;12.60;99.90;;;;;;5005974;28;20444;-41
2022/12/31 00:33:58;;;;;;;5.95;1.50;;;12.60;99.90;;;;;;5005396;28;20567;-42
2022/12/31 00:36:27;;;;;;;6.70;1.77;;;12.60;99.90;;;;;;5011285;28;20018;-42
2022/12/31 00:38:54;;;;;;;2.15;1.63;;;12.50;99.90;;;;;;5010728;28;20113;-42
2022/12/31 00:41:21;;;;;;;3.60;2.00;;;12.60;99.90;;;;;;5009714;28;20061;-42
2022/12/31 00:43:48;;;;;;;2.07;1.90;;;12.60;99.90;;;;;;5010151;28;20061;-42
2022/12/31 00:46:15;;;;;;;3.53;1.50;;;12.60;99.90;;;;;;5011483;28;20029;-42
2022/12/31 00:48:41;;;;;;;3.38;1.67;;;12.60;99.90;;;;;;5009495;28;20107;-40
2022/12/31 00:51:09;;;;;;;3.63;1.52;;;12.60;99.90;;;;;;5011205;28;20033;-42
2022/12/31 00:53:35;;;;;;;2.20;1.15;;;12.60;99.90;;;;;;5007631;28;20085;-42
2022/12/31 00:56:16;;;;;;;3.72;1.30;;;12.50;99.90;;;;;;5007238;28;20473;-40
2022/12/31 00:58:42;;;;;;;3.70;1.05;;;12.50;99.90;;;;;;5005621;28;20042;-39
2022/12/31 01:01:29;;;;;;;4.85;1.15;;;12.50;99.90;;;;;;5009195;28;20037;-41
2022/12/31 01:03:58;;;;;;;2.65;1.38;;;12.50;99.90;;;;;;5003347;28;20116;-40
2022/12/31 01:06:24;;;;;;;1.77;1.00;;;12.40;99.90;;;;;;5004319;28;20165;-41
2022/12/31 01:08:51;;;;;;;4.53;1.10;;;12.50;99.90;;;;;;5012920;28;20113;-43
2022/12/31 01:11:23;;;;;;;0.85;0.82;;;12.40;99.90;;;;;;5013665;28;20037;-41
2022/12/31 01:13:57;;;;;;;5.30;1.23;;;12.50;99.90;;;;;;5011810;28;20076;-41
2022/12/31 01:16:50;;;;;;;2.72;1.30;;;12.40;99.90;;;;;;5013321;28;20044;-41
2022/12/31 01:19:23;;;;;;;1.90;0.73;;;12.40;99.90;;;;;;5006757;28;20037;-38
2022/12/31 01:21:49;;;;;;;5.78;1.65;;;12.50;99.90;;;;;;5009340;28;20509;-40
2022/12/31 01:24:15;;;;;;;5.88;0.60;;;12.40;99.90;;;;;;5012498;28;20022;-43
2022/12/31 01:26:41;;;;;;;4.22;0.90;;;12.30;99.90;;;;;;5013217;28;20026;-34
2022/12/31 01:29:08;;;;;;;5.43;1.67;;;12.30;99.90;;;;;;4999456;28;20439;-42
2022/12/31 01:31:35;;;;;;;4.20;1.17;;;12.30;99.90;;;;;;4992534;28;20035;-46
2022/12/31 01:34:01;;;;;;;3.33;0.93;;;12.30;99.90;;;;;;5012042;28;20058;-43
2022/12/31 01:36:29;;;;;;;3.22;0.77;;;12.30;99.90;;;;;;4997120;28;20072;-40
2022/12/31 01:38:57;;;;;;;2.70;1.00;;;12.30;99.90;;;;;;5012330;28;20044;-43
2022/12/31 01:41:26;;;;;;;;;;;12.30;99.90;;;;;;5012947;28;20022;-44
2022/12/31 01:44:00;;;;;;;9.18;1.40;;;12.30;99.90;;;;;;5011504;28;19956;-42
2022/12/31 01:46:39;;;;;;;2.00;0.90;;;12.20;99.90;;;;;;5010020;28;20539;-40
2022/12/31 01:49:26;;;;;;;7.00;0.68;;;12.20;99.90;;;;;;5012333;28;20034;-41
2022/12/31 01:52:09;;;;;;;4.95;1.15;;;12.20;99.90;;;;;;5010960;28;20044;-40
2022/12/31 01:54:46;;;;;;;3.30;1.00;;;12.20;99.90;;;;;;5016947;28;20478;-40
2022/12/31 01:57:12;;;;;;;4.70;0.80;;;12.20;99.90;;;;;;5004017;28;20505;-41
2022/12/31 01:59:39;;;;;;;0.93;0.88;;;12.20;99.90;;;;;;5011867;28;20014;-40
2022/12/31 02:02:04;;;;;;;2.58;1.50;;;12.20;99.90;;;;;;5012065;28;20478;-57
2022/12/31 02:04:30;;;;;;;3.42;1.27;;;12.20;99.90;;;;;;5013567;28;20026;-41
2022/12/31 02:07:05;;;;;;;4.72;2.08;;;12.20;99.90;;;;;;5008059;28;20034;-40
2022/12/31 02:09:33;;;;;;;7.40;1.50;;;12.10;99.90;;;;;;5014519;28;20385;-40
2022/12/31 02:11:59;;;;;;;2.53;1.40;;;12.10;99.90;;;;;;5014690;28;20576;-40
2022/12/31 02:14:28;;;;;;;1.30;0.90;;;12.10;99.90;;;;;;5012635;28;20132;-41
2022/12/31 02:17:03;;;;;;;1.98;1.02;;;12.10;99.90;;;;;;5016118;28;20026;-41
2022/12/31 02:19:47;;;;;;;1.25;1.00;;;12.10;99.90;;;;;;5015912;28;20057;-41
2022/12/31 02:22:41;;;;;;;2.90;1.42;;;12.10;99.90;;;;;;5015593;28;20368;-37
2022/12/31 02:25:25;;;;;;;5.40;1.38;;;12.00;99.90;;;;;;5013801;28;20057;-33
2022/12/31 02:28:15;;;;;;;4.18;1.42;;;12.10;99.90;;;;;;5015803;28;20072;-35
2022/12/31 02:30:46;;;;;;;6.50;1.88;;;12.00;99.90;;;;;;5015428;28;20064;-40
2022/12/31 02:33:24;;;;;;;5.63;2.05;;;12.00;99.90;;;;;;5015404;28;20570;-40
2022/12/31 02:35:55;;;;;;;5.10;0.90;;;12.10;99.90;;;;;;5015426;28;20076;-38
2022/12/31 02:38:31;;;;;;;2.40;0.90;;;12.00;99.90;;;;;;5016040;28;20073;-37
2022/12/31 02:40:57;;;;;;;3.90;0.80;;;12.00;99.90;;;;;;5015348;28;20026;-31
2022/12/31 02:43:24;;;;;;;2.28;0.63;;;12.00;99.90;;;;;;5013802;28;20022;-33
2022/12/31 02:46:04;;;;;;;1.55;0.75;;;12.00;99.90;;;;;;5015819;28;20038;-34
2022/12/31 02:48:29;;;;;;;1.55;0.40;;;12.00;99.90;;;;;;5014851;28;20029;-34
2022/12/31 02:51:20;;;;;;;0.73;0.60;;;12.00;99.90;;;;;;5013435;28;20455;-32
2022/12/31 02:54:00;;;;;;;4.57;0.63;;;12.00;99.90;;;;;;5013137;28;20034;-43
2022/12/31 02:56:54;;;;;;;3.90;0.80;;;11.90;99.90;;;;;;5015989;28;20397;-40
2022/12/31 03:02:15;;;;;;;4.07;0.60;;;11.90;99.90;;;;;;5015527;28;20140;-41
2022/12/31 03:04:54;;;;;;;1.23;0.50;;;11.90;99.90;;;;;;5014367;28;20432;-39
2022/12/31 03:07:28;;;;;;;5.72;1.65;;;11.90;99.90;;;;;;5015001;28;20041;-49
2022/12/31 03:09:54;;;;;;;1.25;0.60;;;11.80;99.90;;;;;;5011199;28;20030;-58
2022/12/31 03:15:18;;;;;;;;;;;11.90;99.90;;;;;;5014006;28;20121;-39
2022/12/31 03:18:09;;;;;;;4.80;0.82;;;11.90;99.90;;;;;;5012176;28;19914;-39
2022/12/31 03:23:35;;;;;;;4.15;0.63;;;11.80;99.90;;;;;;5013315;28;20097;-36
2022/12/31 03:26:08;;;;;;;0.63;0.60;;;11.80;99.90;;;;;;5014808;28;20026;-39
2022/12/31 03:28:33;;;;;;;7.00;0.77;;;11.70;99.90;;;;;;5014917;28;20018;-40
2022/12/31 03:31:01;;;;;;;7.78;1.00;;;11.70;99.90;;;;;;5014177;28;20032;-40
2022/12/31 03:33:32;;;;;;;1.23;0.70;;;11.70;99.90;;;;;;5013567;28;20030;-42
2022/12/31 03:35:57;;;;;;;2.47;0.82;;;11.70;99.90;;;;;;5015176;28;20034;-39
2022/12/31 03:38:23;;;;;;;3.65;0.60;;;11.70;99.90;;;;;;5012742;28;20088;-39
2022/12/31 03:40:52;;;;;;;2.75;0.57;;;11.70;99.90;;;;;;5014044;28;20109;-37
2022/12/31 03:43:18;;;;;;;3.08;0.80;;;11.60;99.90;;;;;;5014674;28;20363;-40
2022/12/31 03:45:51;;;;;;;8.18;0.60;;;11.60;99.90;;;;;;5014028;28;20470;-38
2022/12/31 03:48:17;;;;;;;5.85;0.70;;;11.50;99.90;;;;;;5013229;28;20025;-40
2022/12/31 03:50:43;;;;;;;4.45;1.10;;;11.50;99.90;;;;;;5013507;28;20528;-45
2022/12/31 03:53:09;;;;;;;4.72;1.02;;;11.50;99.90;;;;;;5013039;28;20053;-40
2022/12/31 03:55:34;;;;;;;2.00;0.75;;;11.50;99.90;;;;;;5014729;28;20104;-40
2022/12/31 03:58:00;;;;;;;3.63;0.70;;;11.50;99.90;;;;;;5014086;28;20026;-39
2022/12/31 04:00:26;;;;;;;1.75;0.70;;;11.50;99.90;;;;;;5012206;28;20024;-39
2022/12/31 04:02:52;;;;;;;4.22;1.08;;;11.40;99.90;;;;;;5012935;28;20022;-40
2022/12/31 04:05:18;;;;;;;0.50;0.50;;;11.40;99.90;;;;;;5012585;28;20026;-36
2022/12/31 04:07:43;;;;;;;6.88;0.90;;;11.30;99.90;;;;;;5012654;28;20037;-38
2022/12/31 04:10:11;;;;;;;10.05;1.10;;;11.30;99.90;;;;;;5012450;28;20033;-40
2022/12/31 04:12:37;;;;;;;1.25;0.82;;;11.30;99.90;;;;;;5014054;28;20490;-42
2022/12/31 04:15:05;;;;;;;8.57;1.08;;;11.20;99.90;;;;;;5009784;28;20030;-39
2022/12/31 04:17:30;;;;;;;2.15;0.88;;;11.30;99.90;;;;;;5008738;28;20107;-39
2022/12/31 04:19:57;;;;;;;2.53;0.70;;;11.30;99.90;;;;;;5007242;28;20455;-40
2022/12/31 04:22:23;;;;;;;1.00;0.60;;;11.20;99.90;;;;;;5014163;28;20054;-36
2022/12/31 04:24:49;;;;;;;4.68;1.50;;;11.20;99.90;;;;;;5013169;28;20497;-37
2022/12/31 04:27:14;;;;;;;4.32;0.93;;;11.20;99.90;;;;;;5013497;28;20026;-35
2022/12/31 04:29:40;;;;;;;1.88;0.70;;;11.20;99.90;;;;;;5012150;28;20104;-34
2022/12/31 04:32:07;;;;;;;2.75;0.93;;;11.20;99.90;;;;;;5013363;28;20536;-38
2022/12/31 04:34:33;;;;;;;3.60;1.15;;;11.20;99.90;;;;;;5010165;28;20076;-34
2022/12/31 04:36:59;;;;;;;8.25;0.82;;;11.20;99.90;;;;;;5013194;28;20036;-37
2022/12/31 04:39:25;;;;;;;1.00;0.90;;;11.20;99.90;;;;;;5011487;28;20088;-34
2022/12/31 04:41:54;;;;;;;1.08;0.80;;;11.20;99.90;;;;;;5011103;28;20050;-38
2022/12/31 04:44:20;;;;;;;1.85;0.95;;;11.20;99.90;;;;;;5011967;28;20018;-39
2022/12/31 04:46:46;;;;;;;6.75;1.50;;;11.20;99.90;;;;;;5013221;28;20551;-40
2022/12/31 04:49:11;;;;;;;1.73;1.30;;;11.20;99.90;;;;;;5012126;28;20545;-38
2022/12/31 04:51:37;;;;;;;1.52;1.40;;;11.20;99.90;;;;;;5012982;28;20109;-40
2022/12/31 04:54:03;;;;;;;1.00;0.90;;;11.20;99.90;;;;;;5010986;28;20112;-36
2022/12/31 04:56:29;;;;;;;3.15;1.65;;;11.10;99.90;;;;;;5008591;28;20044;-37
2022/12/31 04:58:55;;;;;;;1.30;1.20;;;11.10;99.90;;;;;;5012782;28;20026;-37
2022/12/31 05:01:21;;;;;;;2.38;1.48;;;11.20;99.90;;;;;;5011775;28;20483;-37
2022/12/31 05:03:47;;;;;;;3.72;1.48;;;11.20;99.90;;;;;;5010809;28;20022;-39
2022/12/31 05:06:16;;;;;;;2.08;1.67;;;11.30;99.90;;;;;;5007939;28;20062;-39
2022/12/31 05:08:42;;;;;;;2.45;2.08;;;11.30;99.90;;;;;;5004474;28;20113;-38
2022/12/31 05:11:08;;;;;;;1.70;1.55;;;11.20;99.90;;;;;;5011512;28;20030;-38
2022/12/31 05:13:34;;;;;;;2.95;2.00;;;11.30;99.90;;;;;;4999350;28;20029;-37
2022/12/31 05:16:01;;;;;;;4.28;2.00;;;11.30;99.90;;;;;;5007199;28;20056;-38
2022/12/31 05:18:27;;;;;;;4.13;2.38;;;11.30;99.90;;;;;;4999481;28;20034;-38
2022/12/31 05:20:53;;;;;;;2.45;2.22;;;11.30;99.90;;;;;;5007814;28;20026;-40
2022/12/31 05:23:18;;;;;;;2.80;2.22;;;11.30;99.90;;;;;;5011232;28;20076;-38
2022/12/31 05:25:45;;;;;;;4.38;2.60;;;11.40;99.90;;;;;;5011951;28;20022;-37
2022/12/31 05:28:11;;;;;;;3.05;1.90;;;11.40;99.90;;;;;;5012694;28;20513;-37
2022/12/31 05:30:37;;;;;;;2.50;2.00;;;11.40;99.90;;;;;;5012726;28;20022;-35
2022/12/31 05:33:03;;;;;;;3.35;1.88;;;11.50;99.90;;;;;;5012916;28;20376;-34
2022/12/31 05:35:29;;;;;;;2.47;2.28;;;11.50;99.90;;;;;;5012423;28;20030;-39
2022/12/31 05:37:54;;;;;;;1.95;1.67;;;11.50;99.90;;;;;;5012893;28;20025;-35
2022/12/31 05:40:20;;;;;;;2.22;1.88;;;11.50;99.90;;;;;;5012975;28;20033;-35
2022/12/31 05:42:46;;;;;;;2.13;1.92;;;11.50;99.90;;;;;;5011795;28;20033;-67
2022/12/31 05:45:12;;;;;;;2.70;1.75;;;11.60;99.90;;;;;;5011392;28;20022;-35
2022/12/31 05:47:39;;;;;;;2.05;1.85;;;11.60;99.90;;;;;;5011312;28;20030;-35
2022/12/31 05:50:06;;;;;;;1.35;1.25;;;11.70;99.90;;;;;;5012448;28;20390;-34
2022/12/31 05:52:32;;;;;;;3.03;1.20;;;11.60;99.90;;;;;;5011078;28;20029;-34
2022/12/31 05:54:57;;;;;;;2.58;1.55;;;11.70;99.90;;;;;;5011013;28;20045;-36
2022/12/31 05:57:23;;;;;;;1.38;1.27;;;11.80;99.90;;;;;;5010369;28;20402;-35
2022/12/31 05:59:48;;;;;;;3.90;1.25;;;11.80;99.90;;;;;;5010960;28;20026;-32
2022/12/31 06:02:14;;;;;;;2.15;1.42;;;11.80;99.90;;;;;;5010187;28;20482;-37
2022/12/31 06:04:40;;;;;;;4.13;1.33;;;11.80;99.90;;;;;;5009946;28;20021;-36
2022/12/31 06:07:05;;;;;;;1.15;1.10;;;11.80;99.90;;;;;;5007773;28;20501;-31
2022/12/31 06:09:31;;;;;;;1.30;1.20;;;11.90;99.90;;;;;;5011740;28;20097;-32
2022/12/31 06:11:56;;;;;;;1.25;1.15;;;12.00;99.90;;;;;;5012548;28;20542;-33
2022/12/31 06:14:22;;;;;;;0.88;0.88;;;12.00;99.90;;;;;;5012604;28;20042;-33
2022/12/31 06:16:48;;;;;;;0.60;0.60;;;12.00;99.90;;;;;;5012709;28;20026;-38
2022/12/31 06:19:13;;;;;;;1.35;1.13;;;12.10;99.90;;;;;;5011448;28;20096;-36
2022/12/31 06:21:39;;;;;;;1.20;1.10;;;12.10;99.90;;;;;;5011197;28;20390;-35
2022/12/31 06:24:05;;;;;;;1.60;1.50;;;12.10;99.90;;;;;;5012914;28;20478;-34
2022/12/31 06:26:30;;;;;;;2.40;1.60;;;12.10;99.90;;;;;;5012727;28;20026;-39
2022/12/31 06:28:56;;;;;;;5.32;2.83;;;12.10;99.90;;;;;;5012528;28;20025;-38
2022/12/31 06:31:24;;;;;;;3.85;2.97;;;12.20;99.90;;;;;;5011640;28;20038;-34
2022/12/31 06:33:50;;;;;;;3.88;2.75;;;12.20;99.90;;;;;;5012611;28;20057;-34
2022/12/31 06:36:16;;;;;;;3.53;1.85;;;12.20;99.90;;;;;;5009864;28;20051;-37
2022/12/31 06:38:42;;;;;;;3.05;2.38;;;12.20;99.90;;;;;;5014626;28;20482;-38
2022/12/31 06:41:11;;;;;;;2.50;2.30;;;12.30;99.90;;;;;;5015142;28;20042;-34
2022/12/31 06:43:37;;;;;;;2.33;1.90;;;12.30;99.90;;;;;;5016105;28;20117;-36
2022/12/31 06:46:04;;;;;;;4.53;2.92;;;12.30;99.90;;;;;;5015867;28;20041;-33
2022/12/31 06:48:30;;;;;;;3.63;2.77;;;12.40;99.90;;;;;;5016024;28;20101;-46
2022/12/31 06:50:56;;;;;;;3.78;3.25;;;12.40;99.90;;;;;;5014187;28;20133;-38
2022/12/31 06:53:22;;;;;;;5.82;3.30;;;12.50;99.90;;;;;;5016053;28;20437;-39
2022/12/31 06:55:48;;;;;;;6.18;4.05;;;12.60;99.90;;;;;;5015894;28;20121;-36
2022/12/31 06:58:15;;;;;;;6.25;4.15;;;12.60;99.90;;;;;;5015795;28;20114;-36
2022/12/31 07:01:23;;;;;;;6.65;3.35;;;12.60;99.90;;;;;;5014994;28;20125;-35
2022/12/31 07:04:04;;;;;;;5.38;2.97;;;12.70;99.90;;;;;;5014052;28;20084;-37
2022/12/31 07:06:55;;;;;;;5.00;2.30;;;12.70;99.90;;;;;;5012258;28;20029;-35
2022/12/31 07:09:49;;;;;;;1.52;1.13;;;12.80;99.90;;;;;;5013128;28;20029;-37
2022/12/31 07:12:33;;;;;;;0.75;0.52;;;12.90;99.90;;;;;;5003115;28;20032;-31
2022/12/31 07:15:10;;;;;;;1.45;0.70;;;12.90;99.90;;;;;;5011701;28;20109;-34
2022/12/31 07:18:05;;;;;;;0.98;0.90;;;13.00;99.90;;;;;;5006635;28;20377;-39
2022/12/31 07:20:31;;;;;;;0.50;0.35;;;13.10;99.90;;;;;;5011567;28;20042;-43
2022/12/31 07:22:57;;;;;;;0.30;0.30;;;13.20;99.90;;;;;;5013378;28;20117;-38
2022/12/31 07:25:23;;;;;;;1.70;0.20;;;13.20;99.90;;;;;;5015079;28;20034;-34
2022/12/31 07:27:59;;;;;;;0.30;0.30;;;13.20;99.90;;;;;;5014555;28;20030;-35
2022/12/31 07:30:37;;;;;;;0.10;0.10;;;13.20;99.90;;;;;;5013000;28;20033;-33
2022/12/31 07:33:21;;;;;;;4.38;0.30;;;13.30;99.90;;;;;;5013193;28;20113;-33
2022/12/31 07:36:24;;;;;;;0.40;0.13;;;13.30;99.90;;;;;;5013092;28;20033;-35
2022/12/31 07:39:07;;;;;;;0.30;0.30;;;13.30;99.90;;;;;;5005364;28;20529;-37
2022/12/31 07:42:00;;;;;;;1.50;0.28;;;13.40;99.90;;;;;;5015223;28;20505;-40
2022/12/31 07:44:47;;;;;;;0.05;0.05;;;13.40;99.90;;;;;;5011060;28;20037;-36
2022/12/31 07:47:21;;;;;;;0.73;0.20;;;13.40;99.90;;;;;;5014371;28;20032;-37
2022/12/31 07:49:47;;;;;;;0.30;0.10;;;13.40;99.90;;;;;;5012694;28;20402;-35
2022/12/31 07:52:14;;;;;;;0.55;0.28;;;13.40;99.90;;;;;;5014110;28;20510;-35
2022/12/31 07:54:39;;;;;;;0.10;0.10;;;13.40;99.90;;;;;;5014117;28;20459;-37
2022/12/31 07:57:05;;;;;;;1.98;0.40;;;13.40;99.90;;;;;;5014834;28;20030;-35
2022/12/31 07:59:50;;;;;;;0.28;0.28;;;13.40;99.90;;;;;;5012743;28;20021;-34
2022/12/31 08:02:25;;;;;;;2.20;0.60;;;13.40;99.90;;;;;;5012168;28;20022;-37
2022/12/31 08:05:03;;;;;;;0.80;0.50;;;13.50;99.90;;;;;;5008443;28;20022;-32
2022/12/31 08:07:53;;;;;;;0.60;0.47;;;13.50;99.90;;;;;;5013658;28;20022;-34
2022/12/31 08:10:59;;;;;;;1.73;0.65;;;13.50;99.90;;;;;;5014403;28;20092;-33
2022/12/31 08:13:26;;;;;;;0.47;0.40;;;13.50;99.90;;;;;;4995457;28;20023;-36
2022/12/31 08:15:52;;;;;;;1.08;0.40;;;13.50;99.90;;;;;;5013322;28;20475;-34
2022/12/31 08:18:18;;;;;;;1.58;0.55;;;13.50;99.90;;;;;;5013238;28;20053;-41
2022/12/31 08:21:13;;;;;;;0.30;0.30;;;13.40;99.90;;;;;;5003042;28;20429;-35
2022/12/31 08:24:06;;;;;;;0.40;0.40;;;13.50;99.90;;;;;;4994963;28;20049;-38
2022/12/31 08:27:01;;;;;;;2.15;0.68;;;13.40;99.90;;;;;;4990326;28;20046;-43
2022/12/31 08:29:42;;;;;;;0.73;0.50;;;13.50;99.90;;;;;;5006765;28;20112;-37
2022/12/31 08:32:21;;;;;;;1.25;0.75;;;13.50;99.90;;;;;;5014086;28;20117;-38
2022/12/31 08:35:15;;;;;;;0.80;0.77;;;13.50;99.90;;;;;;5013318;28;20084;-39
2022/12/31 08:37:46;;;;;;;0.30;0.30;;;13.40;99.90;;;;;;5007723;28;20513;-38
2022/12/31 08:40:12;;;;;;;1.08;0.30;;;13.50;99.90;;;;;;5013978;28;20026;-38
2022/12/31 08:43:02;;;;;;;21.50;3.95;;;13.40;99.90;;;;;;5013921;28;20052;-37
2022/12/31 08:45:38;;;;;;;3.40;0.75;;;13.40;99.90;;;;;;5011097;28;20109;-39
2022/12/31 08:48:34;;;;;;;6.03;1.45;;;13.40;99.90;;;;;;5014100;28;20528;-40
2022/12/31 08:51:00;;;;;;;1.45;0.73;;;13.40;99.90;;;;;;5013577;28;20026;-38
2022/12/31 08:53:26;;;;;;;4.28;0.70;;;13.40;99.90;;;;;;5012923;28;20057;-39
2022/12/31 08:56:35;;;;;;;1.55;0.50;;;13.40;99.90;;;;;;5013748;28;20393;-39
2022/12/31 08:59:30;;;;;;;4.07;0.50;;;13.40;99.90;;;;;;5006519;28;20506;-39
2022/12/31 09:02:01;;;;;;;1.58;0.40;;;13.40;99.90;;;;;;5011745;28;20041;-39
2022/12/31 09:04:52;;;;;;;2.00;0.55;;;13.30;99.90;;;;;;5013266;28;20540;-39
2022/12/31 09:07:26;;;;;;;4.00;0.70;;;13.30;99.90;;;;;;5012699;28;20481;-38
2022/12/31 09:10:19;;;;;;;2.53;0.57;;;13.40;99.90;;;;;;5012257;28;20173;-38
2022/12/31 09:13:12;;;;;;;2.92;0.30;;;13.30;99.90;;;;;;5013337;28;20544;-39
2022/12/31 09:16:08;;;;;;;0.63;0.60;;;13.30;99.90;;;;;;5013347;28;20034;-38
2022/12/31 09:18:38;;;;;;;5.18;0.90;;;13.40;99.90;;;;;;5011428;28;20549;-38
2022/12/31 09:21:04;;;;;;;3.40;0.52;;;13.40;99.90;;;;;;4995821;28;20524;-39
2022/12/31 09:23:30;;;;;;;0.82;0.57;;;13.50;99.90;;;;;;5003327;28;20025;-34
2022/12/31 09:26:34;;;;;;;4.75;0.88;;;13.40;99.90;;;;;;5011489;28;20026;-32
2022/12/31 09:29:29;;;;;;;0.50;0.50;;;13.50;99.90;;;;;;4991390;28;20041;-32
2022/12/31 09:32:05;;;;;;;2.72;0.73;;;13.50;99.90;;;;;;5002603;28;20422;-35
2022/12/31 09:34:40;;;;;;;1.58;0.90;;;13.50;99.90;;;;;;4997951;28;20034;-35
2022/12/31 09:37:19;;;;;;;5.22;0.77;;;13.50;99.90;;;;;;5011301;28;20156;-34
2022/12/31 09:39:47;;;;;;;6.28;0.85;;;13.60;99.90;;;;;;5010710;28;20394;-37
2022/12/31 09:42:51;;;;;;;2.72;0.65;;;13.70;99.90;;;;;;5012734;28;20029;-36
2022/12/31 09:45:54;;;;;;;0.57;0.32;;;13.80;99.90;;;;;;5001815;28;20037;-36
2022/12/31 09:48:57;;;;;;;1.02;0.60;;;13.80;99.90;;;;;;5001517;28;20030;-33
2022/12/31 09:51:37;;;;;;;0.93;0.57;;;13.80;99.90;;;;;;5008077;28;20581;-35
2022/12/31 09:54:19;;;;;;;4.55;1.00;;;13.90;99.90;;;;;;5010057;28;20125;-33
2022/12/31 09:57:16;;;;;;;4.07;0.82;;;13.90;99.90;;;;;;4993278;28;20036;-35
2022/12/31 09:59:59;;;;;;;2.08;0.90;;;14.00;99.90;;;;;;5008062;28;20037;-37
2022/12/31 10:02:46;;;;;;;6.35;0.70;;;14.00;99.90;;;;;;5005029;28;20030;-33
2022/12/31 10:05:15;;;;;;;0.73;0.43;;;14.10;99.90;;;;;;5005391;28;20026;-31
2022/12/31 10:08:14;;;;;;;1.52;0.88;;;14.10;99.90;;;;;;5008794;28;20073;-34
2022/12/31 10:10:53;;;;;;;1.40;0.80;;;14.20;99.90;;;;;;5007341;28;20030;-36
2022/12/31 10:13:49;;;;;;;1.60;0.70;;;14.30;99.90;;;;;;5009822;28;20030;-31
2022/12/31 10:16:17;;;;;;;3.38;0.80;;;14.30;99.90;;;;;;5015808;28;20485;-32
2022/12/31 10:18:49;;;;;;;2.33;0.68;;;14.40;99.90;;;;;;5012305;28;20038;-32
2022/12/31 10:21:35;;;;;;;7.00;0.90;;;14.50;99.90;;;;;;5015423;28;20030;-34
2022/12/31 10:24:38;;;;;;;0.73;0.73;;;14.50;99.90;;;;;;5016080;28;20026;-34
2022/12/31 10:27:18;;;;;;;1.90;1.05;;;14.50;99.90;;;;;;5014423;28;20065;-31
2022/12/31 10:29:46;;;;;;;1.92;1.30;;;14.50;99.90;;;;;;4996746;28;20113;-33
2022/12/31 10:32:40;;;;;;;4.75;2.33;;;14.60;99.90;;;;;;5012494;28;20030;-35
2022/12/31 10:35:34;;;;;;;2.40;0.85;;;14.60;99.90;;;;;;5015082;28;20383;-30
2022/12/31 10:38:20;;;;;;;2.15;1.30;;;14.70;99.90;;;;;;5007807;28;20032;-32
2022/12/31 10:41:20;;;;;;;2.38;1.10;;;14.60;99.90;;;;;;5014432;28;20030;-33
2022/12/31 10:44:07;;;;;;;2.33;0.82;;;14.70;99.90;;;;;;5011614;28;20413;-31
2022/12/31 10:46:43;;;;;;;3.13;1.23;;;14.80;99.90;;;;;;5012550;28;20474;-31
2022/12/31 10:49:47;;;;;;;2.10;1.00;;;14.90;99.90;;;;;;5004880;28;20509;-31
2022/12/31 10:52:49;;;;;;;0.80;0.80;;;14.90;99.90;;;;;;5005556;28;20049;-35
2022/12/31 10:55:51;;;;;;;6.97;1.13;;;15.00;99.90;;;;;;5013552;28;20137;-34
2022/12/31 10:58:29;;;;;;;1.48;0.88;;;15.00;99.90;;;;;;5014558;28;20105;-40
2022/12/31 11:01:06;;;;;;;;;;;15.00;99.90;;;;;;5012864;28;20386;-34
2022/12/31 11:04:01;;;;;;;4.60;0.82;;;15.00;99.90;;;;;;5014873;28;19988;-39
2022/12/31 11:06:52;;;;;;;4.13;0.70;;;15.00;99.90;;;;;;4983400;28;20046;-40
2022/12/31 11:09:52;;;;;;;1.10;1.00;;;15.00;99.90;;;;;;5013324;28;20030;-55
2022/12/31 11:12:39;;;;;;;4.30;1.48;;;14.90;99.90;;;;;;5000898;28;20129;-40
2022/12/31 11:15:11;;;;;;;3.15;1.05;;;14.80;99.90;;;;;;5005722;28;20502;-39
2022/12/31 11:17:53;;;;;;;5.25;1.63;;;14.80;99.90;;;;;;5008961;28;20485;-40
2022/12/31 11:20:38;;;;;;;1.15;1.02;;;14.80;99.90;;;;;;5008995;28;20061;-35
2022/12/31 11:23:47;;;;;;;1.73;1.13;;;14.80;99.90;;;;;;5009121;28;20494;-39
2022/12/31 11:27:00;;;;;;;1.98;0.98;;;14.70;99.90;;;;;;5007142;28;20617;-40
2022/12/31 11:30:02;;;;;;;6.68;1.35;;;14.60;99.90;;;;;;4984022;28;20465;-40
2022/12/31 11:32:58;;;;;;;4.40;1.10;;;14.60;99.90;;;;;;5005586;28;20025;-55
2022/12/31 11:35:38;;;;;;;1.40;0.90;;;14.60;99.90;;;;;;5006146;28;20018;-40
2022/12/31 11:38:32;;;;;;;5.50;1.33;;;14.60;99.90;;;;;;5007284;28;20513;-41
2022/12/31 11:41:23;;;;;;;2.20;1.70;;;14.60;99.90;;;;;;5005071;28;20101;-40
2022/12/31 11:44:24;;;;;;;4.90;0.90;;;14.60;99.90;;;;;;5006790;28;20530;-40
2022/12/31 11:47:30;;;;;;;2.78;1.15;;;14.60;99.90;;;;;;4969582;28;20034;-40
2022/12/31 11:49:59;;;;;;;3.58;1.77;;;14.60;99.90;;;;;;4983820;28;20031;-38
2022/12/31 11:52:56;;;;;;;3.38;1.30;;;14.60;99.90;;;;;;5000689;28;20066;-58
2022/12/31 11:55:40;;;;;;;6.50;1.20;;;14.70;99.90;;;;;;5004731;28;20029;-36
2022/12/31 11:58:15;;;;;;;1.10;0.82;;;14.80;99.90;;;;;;5004720;28;20806;-40
2022/12/31 12:01:01;;;;;;;4.75;1.45;;;14.80;99.90;;;;;;5006691;28;20152;-38
2022/12/31 12:03:27;;;;;;;7.55;1.42;;;14.80;99.90;;;;;;5001463;28;20034;-41
2022/12/31 12:05:54;;;;;;;8.25;2.00;;;14.90;99.90;;;;;;5005724;28;20029;-38
2022/12/31 12:08:20;;;;;;;4.60;1.52;;;14.90;99.90;;;;;;5009328;28;20036;-40
2022/12/31 12:10:49;;;;;;;4.55;1.33;;;15.00;99.90;;;;;;5004891;28;20021;-37
2022/12/31 12:13:23;;;;;;;7.53;1.60;;;15.00;99.90;;;;;;5003391;28;20504;-41
2022/12/31 12:15:54;;;;;;;3.70;1.13;;;15.00;99.90;;;;;;5004759;28;20034;-33
2022/12/31 12:18:44;;;;;;;4.53;1.13;;;15.00;99.90;;;;;;5004172;28;20030;-40
2022/12/31 12:21:30;;;;;;;9.75;1.48;;;14.90;99.90;;;;;;5004084;28;20048;-32
2022/12/31 12:23:57;;;;;;;4.63;0.93;;;14.90;99.90;;;;;;5009529;28;20105;-41
2022/12/31 12:26:34;;;;;;;2.15;1.02;;;14.90;99.90;;;;;;5005500;28;20405;-42
2022/12/31 12:29:14;;;;;;;2.67;1.30;;;14.80;99.90;;;;;;5005191;28;20553;-42
2022/12/31 12:31:40;;;;;;;3.78;1.60;;;14.90;99.90;;;;;;5002818;28;20034;-41
2022/12/31 12:34:22;;;;;;;1.90;1.00;;;14.90;99.90;;;;;;5010067;28;20489;-43
2022/12/31 12:36:48;;;;;;;2.58;1.00;;;14.90;99.90;;;;;;5005193;28;20466;-40
2022/12/31 12:39:26;;;;;;;6.07;1.67;;;14.90;99.90;;;;;;5005754;28;20036;-41
2022/12/31 12:42:13;;;;;;;3.28;1.23;;;14.90;99.90;;;;;;5008429;28;20569;-40
2022/12/31 12:44:40;;;;;;;3.28;1.33;;;14.80;99.90;;;;;;5003892;28;20509;-40
2022/12/31 12:49:58;;;;;;;6.70;1.40;;;14.90;99.90;;;;;;5004483;28;20490;-40
2022/12/31 12:53:08;;;;;;;5.65;1.95;;;14.90;99.90;;;;;;5005020;28;20033;-40
2022/12/31 12:55:52;;;;;;;2.22;1.08;;;14.90;99.90;;;;;;4999317;28;20069;-37
2022/12/31 12:58:52;;;;;;;1.63;0.98;;;15.00;99.90;;;;;;5008448;28;20065;-41
2022/12/31 13:01:52;;;;;;;97.75;49.35;;;15.00;99.90;;;;;;5004217;28;20405;-39
2022/12/31 13:04:17;;;;;;;8.45;3.33;;;14.90;99.90;;;;;;5006612;28;20061;-41
2022/12/31 13:07:04;;;;;;;5.45;3.22;;;14.90;99.90;;;;;;5004582;28;20056;-36
2022/12/31 13:09:48;;;;;;;7.60;1.52;;;14.90;99.90;;;;;;5007256;28;20054;-38
2022/12/31 13:12:27;;;;;;;1.35;0.80;;;14.90;99.90;;;;;;5003610;28;20037;-41
2022/12/31 13:14:58;;;;;;;2.17;1.05;;;14.90;99.90;;;;;;5006797;28;20038;-40
2022/12/31 13:17:49;;;;;;;2.55;0.80;;;14.90;99.90;;;;;;5009877;28;20486;-36
2022/12/31 13:20:30;;;;;;;4.25;1.42;;;14.80;99.90;;;;;;4997927;28;20042;-40
2022/12/31 13:23:19;;;;;;;5.45;1.00;;;14.80;99.90;;;;;;5002241;28;20018;-41
2022/12/31 13:26:22;;;;;;;3.03;1.30;;;14.80;99.90;;;;;;5005366;28;20057;-40
2022/12/31 13:28:51;;;;;;;6.80;0.77;;;14.70;99.90;;;;;;4994229;28;20049;-42
2022/12/31 13:31:25;;;;;;;6.28;1.95;;;14.70;99.90;;;;;;5002701;28;20061;-36
2022/12/31 13:34:29;;;;;;;7.55;1.35;;;14.60;99.90;;;;;;5008215;28;20120;-39
2022/12/31 13:36:57;;;;;;;2.45;1.10;;;14.60;99.90;;;;;;4955596;28;20395;-41
2022/12/31 13:39:27;;;;;;;6.32;1.48;;;14.60;99.90;;;;;;4996650;28;20092;-76
2022/12/31 13:42:28;;;;;;;5.40;1.55;;;14.60;99.90;;;;;;5009019;28;20508;-41
2022/12/31 13:45:00;;;;;;;10.43;1.90;;;14.60;99.90;;;;;;4987435;28;20038;-41